Time;durP1;ratioP1;P1;durP2;ratioP2;P2;SDS_P1;SDS_P2;PMS_P1;PMS_P2;Temp;Humidity;BMP_temperature;BMP_pressure;BME280_temperature;BME280_humidity;BME280_pressure;Samples;Min_cycle;Max_cycle;Signal;HPM_P1;HPM_P2
2023/01/12 00:02:34;;;;;;;1.83;1.50;;;;;;;7.47;100.00;60274.75;6276020;28;20310;-71
2023/01/12 00:05:37;;;;;;;1.93;0.93;;;;;;;-144.22;100.00;60274.75;6274509;28;20233;-71
2023/01/12 00:08:43;;;;;;;1.20;0.93;;;;;;;-144.22;100.00;60274.75;6291997;28;20331;-71
2023/01/12 00:11:45;;;;;;;1.60;1.10;;;;;;;-144.22;100.00;60274.75;6278140;28;20367;-71
2023/01/12 00:14:47;;;;;;;1.03;0.93;;;;;;;-144.22;100.00;60274.75;6276574;28;20242;-71
2023/01/12 00:17:49;;;;;;;2.37;1.10;;;;;;;-144.22;100.00;60274.75;6273896;28;20270;-71
2023/01/12 00:20:51;;;;;;;1.50;1.40;;;;;;;-144.22;100.00;60274.75;6274705;28;21054;-71
2023/01/12 00:23:54;;;;;;;1.27;1.10;;;;;;;-144.22;100.00;60274.75;6280447;28;20316;-71
2023/01/12 00:26:58;;;;;;;1.50;1.40;;;;;;;-144.22;100.00;60274.75;6290609;28;20236;-71
2023/01/12 00:30:00;;;;;;;2.10;1.57;;;;;;;-144.22;100.00;60274.75;6292610;28;20270;-71
2023/01/12 00:33:02;;;;;;;1.60;1.33;;;;;;;-144.22;100.00;60274.75;6291552;28;20236;-72
2023/01/12 00:36:10;;;;;;;2.23;1.70;;;;;;;-144.22;100.00;60274.75;6292228;28;20611;-71
2023/01/12 00:39:13;;;;;;;1.80;1.50;;;;;;;7.02;100.00;60274.75;6296466;28;20352;-73
2023/01/12 00:45:37;;;;;;;2.07;1.73;;;;;;;7.07;100.00;60274.75;6296647;28;20316;-70
2023/01/12 00:48:39;;;;;;;2.10;1.90;;;;;;;21.74;100.00;60274.75;6293473;28;20309;-71
2023/01/12 00:51:41;;;;;;;2.10;1.80;;;;;;;-144.22;100.00;60274.75;6291563;28;20229;-70
2023/01/12 00:54:44;;;;;;;1.90;1.67;;;;;;;8.77;100.00;60274.75;6276828;28;20311;-71
2023/01/12 00:57:46;;;;;;;2.43;1.70;;;;;;;-144.22;100.00;60274.75;6291334;28;20223;-71
2023/01/12 01:00:48;;;;;;;2.00;1.80;;;;;;;-144.22;100.00;60274.75;6291145;28;20717;-70
2023/01/12 01:03:51;;;;;;;1.90;1.70;;;;;;;-144.22;100.00;60274.75;6294877;28;20566;-71
2023/01/12 01:06:53;;;;;;;2.30;2.10;;;;;;;-144.22;100.00;60274.75;6273317;28;20218;-71
2023/01/12 01:09:55;;;;;;;2.90;2.20;;;;;;;11.36;100.00;60274.75;6295021;28;20356;-71
2023/01/12 01:12:57;;;;;;;2.27;1.97;;;;;;;-144.22;100.00;60274.75;6276163;28;20236;-71
2023/01/12 01:16:00;;;;;;;1.57;1.43;;;;;;;-144.22;100.00;60274.75;6291721;28;20229;-68
2023/01/12 01:19:04;;;;;;;2.60;2.00;;;;;;;-144.22;100.00;60274.75;6272037;28;20320;-70
2023/01/12 01:22:06;;;;;;;3.33;1.70;;;;;;;175.01;100.00;60274.75;6275764;28;20237;-71
2023/01/12 01:25:09;;;;;;;2.80;1.83;;;;;;;-144.22;100.00;60274.75;6291899;28;20225;-71
2023/01/12 01:28:11;;;;;;;3.80;2.33;;;;;;;-144.22;100.00;60274.75;6288571;28;20238;-71
2023/01/12 01:31:20;;;;;;;2.77;2.00;;;;;;;7.14;100.00;60274.75;6292286;28;20689;-71
2023/01/12 01:34:22;;;;;;;2.37;2.10;;;;;;;-144.22;100.00;60274.75;6287800;28;20229;-70
2023/01/12 01:37:24;;;;;;;2.57;2.07;;;;;;;6.80;100.00;60274.75;6290874;28;20229;-71
2023/01/12 01:40:27;;;;;;;2.10;1.90;;;;;;;-144.22;100.00;60274.75;6290169;28;20598;-71
2023/01/12 01:43:56;;;;;;;3.73;2.43;;;;;;;19.15;100.00;60274.75;6290246;28;20308;-72
2023/01/12 01:47:13;;;;;;;4.03;2.20;;;;;;;-144.22;100.00;60274.75;6292376;28;20234;-71
2023/01/12 01:50:31;;;;;;;3.60;2.30;;;;;;;6.84;100.00;60274.75;6271535;28;20317;-71
2023/01/12 01:53:37;;;;;;;1.90;1.70;;;;;;;-144.22;100.00;60274.75;6291000;28;20234;-71
2023/01/12 01:56:39;;;;;;;2.63;1.90;;;;;;;-144.22;100.00;60274.75;6280892;28;20234;-71
2023/01/12 01:59:47;;;;;;;4.20;2.13;;;;;;;19.15;100.00;60274.75;6271392;28;20241;-70
2023/01/12 02:02:51;;;;;;;3.43;2.13;;;;;;;-144.22;100.00;60274.75;6290196;28;20241;-71
2023/01/12 02:05:56;;;;;;;4.63;2.07;;;;;;;-144.22;100.00;60274.75;6275755;28;20568;-71
2023/01/12 02:09:13;;;;;;;2.50;1.83;;;;;;;-144.22;100.00;60274.75;6289852;28;20643;-71
2023/01/12 02:16:19;;;;;;;3.27;1.50;;;;;;;-144.22;100.00;60274.75;6291113;28;20233;-71
2023/01/12 02:19:55;;;;;;;2.57;1.70;;;;;;;-144.22;100.00;60274.75;6290515;28;20242;-71
2023/01/12 02:23:12;;;;;;;2.37;1.70;;;;;;;-144.22;100.00;60274.75;6290559;28;20376;-72
2023/01/12 02:27:05;;;;;;;3.43;1.90;;;;;;;-144.22;100.00;60274.75;6289948;28;20294;-71
2023/01/12 02:30:19;;;;;;;3.53;1.93;;;;;;;-144.22;100.00;60274.75;6246707;28;20240;-71
2023/01/12 02:33:27;;;;;;;2.07;1.30;;;;;;;-144.22;100.00;60274.75;6288351;28;20229;-70
2023/01/12 02:36:44;;;;;;;2.70;1.33;;;;;;;-144.22;100.00;60274.75;6289109;28;20237;-72
2023/01/12 02:40:06;;;;;;;2.40;1.40;;;;;;;-144.22;100.00;60274.75;6292351;28;20229;-71
2023/01/12 02:43:29;;;;;;;2.67;1.43;;;;;;;-144.22;100.00;60274.75;6292362;28;20253;-70
2023/01/12 02:46:32;;;;;;;1.43;1.30;;;;;;;-144.22;100.00;60274.75;6292386;28;20262;-71
2023/01/12 02:49:44;;;;;;;3.00;1.97;;;;;;;-144.22;100.00;60274.75;6288213;28;20275;-71
2023/01/12 02:52:53;;;;;;;2.83;1.67;;;;;;;-144.22;100.00;60274.75;6289933;28;20286;-71
2023/01/12 02:56:02;;;;;;;3.80;1.60;;;;;;;21.74;100.00;60274.75;6292801;28;20229;-71
2023/01/12 02:59:36;;;;;;;3.47;1.80;;;;;;;188.01;100.00;60274.75;6292794;28;20320;-71
2023/01/12 03:02:39;;;;;;;3.97;1.97;;;;;;;-144.22;100.00;60274.75;6291929;28;20472;-72
2023/01/12 03:05:41;;;;;;;4.53;2.17;;;;;;;-144.22;100.00;60274.75;6293097;28;20229;-71
2023/01/12 03:08:46;;;;;;;3.53;1.90;;;;;;;-144.22;100.00;60274.75;6291512;28;20286;-72
2023/01/12 03:11:54;;;;;;;4.33;1.80;;;;;;;-144.22;100.00;60274.75;6293279;28;20323;-70
2023/01/12 03:15:01;;;;;;;3.33;1.77;;;;;;;-144.22;100.00;60274.75;6276249;28;20598;-71
2023/01/12 03:18:27;;;;;;;3.37;2.10;;;;;;;-144.22;100.00;60274.75;6264065;28;20697;-71
2023/01/12 03:21:33;;;;;;;4.03;1.97;;;;;;;19.15;100.00;60274.75;6296324;28;20236;-71
2023/01/12 03:24:44;;;;;;;5.17;1.53;;;;;;;-144.22;100.00;60274.75;6294307;28;20314;-71
2023/01/12 03:27:53;;;;;;;2.63;1.40;;;;;;;-144.22;100.00;60274.75;6293683;28;20578;-70
2023/01/12 03:31:07;;;;;;;3.53;2.00;;;;;;;-144.22;100.00;60274.75;6291186;28;20610;-72
2023/01/12 03:34:10;;;;;;;3.37;1.60;;;;;;;-144.22;100.00;60274.75;6294564;28;20226;-71
2023/01/12 03:37:41;;;;;;;3.77;1.87;;;;;;;-144.22;100.00;60274.75;6278501;28;20238;-70
2023/01/12 03:40:48;;;;;;;1.63;1.53;;;;;;;-144.22;100.00;60274.75;6294223;28;20225;-70
2023/01/12 03:43:54;;;;;;;4.17;2.67;;;;;;;-144.22;100.00;60274.75;6292096;28;20338;-71
2023/01/12 03:47:08;;;;;;;4.17;1.93;;;;;;;-144.22;100.00;60274.75;6276877;28;20237;-71
2023/01/12 03:50:16;;;;;;;4.23;2.00;;;;;;;-144.22;100.00;60274.75;6285229;28;20285;-71
2023/01/12 03:53:22;;;;;;;3.80;1.70;;;;;;;-144.22;100.00;60274.75;6293370;28;20741;-69
2023/01/12 03:56:28;;;;;;;6.13;2.20;;;;;;;6.30;100.00;60274.75;6294761;28;20374;-71
2023/01/12 03:59:31;;;;;;;3.20;1.97;;;;;;;-144.22;100.00;60274.75;6289008;28;20234;-71
2023/01/12 04:02:33;;;;;;;4.10;2.03;;;;;;;-144.22;100.00;60274.75;6281397;28;20287;-71
2023/01/12 04:05:36;;;;;;;3.07;1.90;;;;;;;-144.22;100.00;60274.75;6292832;28;20622;-71
2023/01/12 04:08:38;;;;;;;7.77;2.10;;;;;;;-144.22;100.00;60274.75;6276222;28;20236;-70
2023/01/12 04:15:01;;;;;;;3.00;2.07;;;;;;;-144.22;100.00;60274.75;6275176;28;20706;-70
2023/01/12 04:18:04;;;;;;;2.27;1.90;;;;;;;-144.22;100.00;60274.75;6291538;28;20221;-71
2023/01/12 04:22:41;;;;;;;7.43;2.07;;;;;;;-144.22;100.00;60274.75;6291133;28;20301;-70
2023/01/12 04:24:28;;;;;;;6.37;2.33;;;;;;;188.01;100.00;60274.75;6297361;28;20367;-70
2023/01/12 04:27:31;;;;;;;3.50;1.97;;;;;;;-144.22;100.00;60274.75;6294630;28;20233;-71
2023/01/12 04:30:33;;;;;;;3.30;1.60;;;;;;;-144.22;100.00;60274.75;6291518;28;20224;-70
2023/01/12 04:33:36;;;;;;;3.97;2.07;;;;;;;-144.22;100.00;60274.75;6288779;28;20728;-71
2023/01/12 04:36:40;;;;;;;3.33;1.43;;;;;;;-144.22;100.00;60274.75;6291167;28;20233;-71
2023/01/12 04:39:42;;;;;;;2.80;1.67;;;;;;;-144.22;100.00;60274.75;6289475;28;20219;-71
2023/01/12 04:43:09;;;;;;;2.43;1.60;;;;;;;11.36;100.00;60274.75;6289543;28;20693;-71
2023/01/12 04:46:11;;;;;;;4.10;1.70;;;;;;;5.85;100.00;60274.75;6291488;28;20731;-71
2023/01/12 04:49:14;;;;;;;2.17;1.40;;;;;;;-144.22;100.00;60274.75;6291192;28;20733;-71
2023/01/12 04:52:16;;;;;;;4.80;1.90;;;;;;;-144.22;100.00;60274.75;6268705;28;20316;-71
2023/01/12 04:55:18;;;;;;;3.70;1.60;;;;;;;-144.22;100.00;60274.75;6291860;28;20239;-71
2023/01/12 04:58:20;;;;;;;3.47;1.60;;;;;;;-144.22;100.00;60274.75;6291575;28;20324;-71
2023/01/12 05:01:22;;;;;;;3.17;1.47;;;;;;;5.79;100.00;60274.75;6292600;28;20597;-71
2023/01/12 05:04:25;;;;;;;2.17;1.50;;;;;;;-144.22;100.00;60274.75;6276986;28;20268;-71
2023/01/12 05:07:27;;;;;;;3.53;1.90;;;;;;;-144.22;100.00;60274.75;6271823;28;20234;-71
2023/01/12 05:10:30;;;;;;;5.70;1.50;;;;;;;-144.22;100.00;60274.75;6277115;28;20236;-70
2023/01/12 05:13:32;;;;;;;3.00;1.50;;;;;;;-144.22;100.00;60274.75;6287064;28;20239;-71
2023/01/12 05:16:35;;;;;;;4.57;1.43;;;;;;;-144.22;100.00;60274.75;6291197;28;20250;-70
2023/01/12 05:19:37;;;;;;;5.00;1.90;;;;;;;-144.22;100.00;60274.75;6292959;28;20236;-70
2023/01/12 05:22:39;;;;;;;2.27;1.13;;;;;;;-144.22;100.00;60274.75;6287771;28;20237;-71
2023/01/12 05:25:44;;;;;;;4.47;1.60;;;;;;;-144.22;100.00;60274.75;6289818;28;20305;-71
2023/01/12 05:28:48;;;;;;;3.63;1.60;;;;;;;-144.22;100.00;60274.75;6294150;28;20232;-70
2023/01/12 05:31:50;;;;;;;5.93;1.43;;;;;;;-144.22;100.00;60274.75;6288516;28;20598;-71
2023/01/12 05:34:52;;;;;;;3.73;1.60;;;;;;;-144.22;100.00;60274.75;6290123;28;20226;-70
2023/01/12 05:37:55;;;;;;;2.40;1.63;;;;;;;-144.22;100.00;60274.75;6292171;28;20321;-71
2023/01/12 05:40:59;;;;;;;2.30;1.30;;;;;;;-144.22;100.00;60274.75;6280501;28;20231;-70
2023/01/12 05:44:01;;;;;;;1.57;1.37;;;;;;;-144.22;100.00;60274.75;6293142;28;20690;-70
2023/01/12 05:47:06;;;;;;;2.63;1.47;;;;;;;-144.22;100.00;60274.75;6293022;28;20708;-70
2023/01/12 05:50:08;;;;;;;2.90;1.13;;;;;;;-144.22;100.00;60274.75;6290616;28;20249;-70
2023/01/12 05:53:11;;;;;;;5.00;1.90;;;;;;;-144.22;100.00;60274.75;6288515;28;20237;-70
2023/01/12 05:56:25;;;;;;;4.73;2.00;;;;;;;5.65;100.00;60274.75;6273923;28;20236;-70
2023/01/12 05:59:27;;;;;;;4.33;1.80;;;;;;;-144.22;100.00;60274.75;6291751;28;20240;-70
2023/01/12 06:02:29;;;;;;;5.83;2.53;;;;;;;-144.22;100.00;60274.75;6270906;28;20239;-69
2023/01/12 06:05:31;;;;;;;5.53;2.27;;;;;;;-144.22;100.00;60274.75;6272103;28;20239;-70
2023/01/12 06:08:33;;;;;;;3.27;2.27;;;;;;;-144.22;100.00;60274.75;6289507;28;20238;-71
2023/01/12 06:14:56;;;;;;;5.83;2.17;;;;;;;-144.22;100.00;60274.75;6294604;28;20239;-70
2023/01/12 06:17:58;;;;;;;5.10;2.00;;;;;;;-144.22;100.00;60274.75;6291334;28;20323;-71
2023/01/12 06:21:02;;;;;;;7.77;1.70;;;;;;;-144.22;100.00;60274.75;6273648;28;20243;-70
2023/01/12 06:24:04;;;;;;;3.53;1.90;;;;;;;-144.22;100.00;60274.75;6287089;28;20306;-71
2023/01/12 06:27:07;;;;;;;4.87;1.90;;;;;;;-144.22;100.00;60274.75;6289490;28;20241;-71
2023/01/12 06:30:10;;;;;;;4.67;1.80;;;;;;;-144.22;100.00;60274.75;6287877;28;20214;-70
2023/01/12 06:33:13;;;;;;;2.37;1.50;;;;;;;-144.22;100.00;60274.75;6289304;28;20300;-70
2023/01/12 06:36:15;;;;;;;4.73;1.53;;;;;;;-144.22;100.00;60274.75;6288852;28;20843;-71
2023/01/12 06:39:17;;;;;;;4.67;2.00;;;;;;;-144.22;100.00;60274.75;6272545;28;20663;-71
2023/01/12 06:42:28;;;;;;;1.83;1.43;;;;;;;-144.22;100.00;60274.75;6291744;28;20261;-70
2023/01/12 06:45:30;;;;;;;5.03;1.40;;;;;;;-144.22;100.00;60274.75;6289859;28;20576;-70
2023/01/12 06:48:32;;;;;;;4.07;1.13;;;;;;;-144.22;100.00;60274.75;6289507;28;20593;-70
2023/01/12 06:51:40;;;;;;;3.00;1.23;;;;;;;-144.22;100.00;60274.75;6286416;28;20252;-70
2023/01/12 06:54:42;;;;;;;4.30;1.53;;;;;;;-144.22;100.00;60274.75;6269701;28;20539;-68
2023/01/12 06:57:44;;;;;;;3.23;1.10;;;;;;;-144.22;100.00;60274.75;6269049;28;20317;-70
2023/01/12 07:00:46;;;;;;;2.00;1.03;;;;;;;4.87;100.00;60274.75;6270809;28;20227;-69
2023/01/12 07:03:48;;;;;;;4.10;1.27;;;;;;;-144.22;100.00;60274.75;6293371;28;20349;-70
2023/01/12 07:06:54;;;;;;;5.60;1.13;;;;;;;-144.22;100.00;60274.75;6279510;28;20713;-70
2023/01/12 07:09:59;;;;;;;2.77;0.80;;;;;;;4.98;100.00;60274.75;6290477;28;20326;-70
2023/01/12 07:13:01;;;;;;;2.80;0.83;;;;;;;-144.22;100.00;60274.75;6270723;28;20687;-70
2023/01/12 07:16:03;;;;;;;2.57;0.80;;;;;;;-144.22;100.00;60274.75;6289030;28;20231;-70
2023/01/12 07:19:05;;;;;;;4.03;1.43;;;;;;;-144.22;100.00;60274.75;6298199;28;20238;-70
2023/01/12 07:22:08;;;;;;;3.63;0.77;;;;;;;-144.22;100.00;60274.75;6293173;28;20233;-69
2023/01/12 07:25:10;;;;;;;1.63;0.80;;;;;;;188.01;100.00;60274.75;6292534;28;20350;-70
2023/01/12 07:28:12;;;;;;;3.10;0.87;;;;;;;-144.22;100.00;60274.75;6277322;28;20242;-70
2023/01/12 07:31:14;;;;;;;2.63;0.80;;;;;;;-144.22;100.00;60274.75;6275390;28;20225;-70
2023/01/12 07:34:17;;;;;;;4.13;0.80;;;;;;;188.01;100.00;60274.75;6295689;28;20228;-69
2023/01/12 07:37:20;;;;;;;3.63;0.63;;;;;;;-144.22;100.00;60274.75;6287864;28;20256;-70
2023/01/12 07:40:22;;;;;;;2.83;0.90;;;;;;;-144.22;100.00;60274.75;6271482;28;20600;-70
2023/01/12 07:43:24;;;;;;;2.20;0.73;;;;;;;177.61;100.00;60274.75;6274921;28;20713;-70
2023/01/12 07:46:26;;;;;;;2.27;0.80;;;;;;;-144.22;100.00;60274.75;6276486;28;20236;-70
2023/01/12 07:49:28;;;;;;;3.63;0.60;;;;;;;-144.22;100.00;60274.75;6291992;28;20248;-70
2023/01/12 07:52:33;;;;;;;2.83;0.80;;;;;;;5.02;100.00;60274.75;6280153;28;20221;-70
2023/01/12 07:55:38;;;;;;;1.70;0.53;;;;;;;-144.22;100.00;60274.75;6292182;28;20231;-70
2023/01/12 07:58:42;;;;;;;1.20;0.63;;;;;;;-144.22;100.00;60274.75;6290909;28;20721;-70
2023/01/12 08:01:44;;;;;;;2.93;0.80;;;;;;;-144.22;100.00;60274.75;6294035;28;20330;-70
2023/01/12 08:04:47;;;;;;;4.67;1.00;;;;;;;11.36;100.00;60274.75;6275492;28;20236;-70
2023/01/12 08:07:49;;;;;;;2.10;0.90;;;;;;;-144.22;100.00;60274.75;6292356;28;20236;-70
2023/01/12 08:10:51;;;;;;;2.10;0.70;;;;;;;-144.22;100.00;60274.75;6294941;28;20235;-70
2023/01/12 08:13:55;;;;;;;2.37;0.60;;;;;;;-144.22;100.00;60274.75;6289926;28;20238;-70
2023/01/12 08:17:00;;;;;;;3.33;1.00;;;;;;;-144.22;100.00;60274.75;6290327;28;20239;-70
2023/01/12 08:20:09;;;;;;;5.00;0.83;;;;;;;-144.22;100.00;60274.75;6262562;28;20239;-70
2023/01/12 08:23:22;;;;;;;1.80;0.60;;;;;;;-144.22;100.00;60274.75;6292245;28;20629;-70
2023/01/12 08:26:34;;;;;;;3.67;0.80;;;;;;;-144.22;100.00;60274.75;6288845;28;20584;-70
2023/01/12 08:29:46;;;;;;;3.07;0.80;;;;;;;177.61;100.00;60274.75;6271050;28;20220;-70
2023/01/12 08:32:48;;;;;;;4.07;0.97;;;;;;;-144.22;100.00;60274.75;6291296;28;20279;-70
2023/01/12 08:35:51;;;;;;;4.77;0.70;;;;;;;-144.22;100.00;60274.75;6291933;28;20263;-70
2023/01/12 08:38:55;;;;;;;2.37;0.50;;;;;;;-144.22;100.00;60274.75;6290870;28;20731;-70
2023/01/12 08:41:57;;;;;;;3.63;0.70;;;;;;;5.20;100.00;60274.75;6271745;28;20263;-71
2023/01/12 08:44:59;;;;;;;4.00;0.87;;;;;;;-144.22;100.00;60274.75;6272833;28;20229;-70
2023/01/12 08:48:01;;;;;;;2.27;0.97;;;;;;;-144.22;100.00;60274.75;6287478;28;20232;-70
2023/01/12 08:51:06;;;;;;;2.23;0.53;;;;;;;-144.22;100.00;60274.75;6290346;28;20239;-70
2023/01/12 08:54:10;;;;;;;3.03;0.80;;;;;;;-144.22;100.00;60274.75;6270662;28;20635;-70
2023/01/12 08:57:12;;;;;;;3.90;0.87;;;;;;;11.36;100.00;60274.75;6269742;28;20228;-70
2023/01/12 09:00:15;;;;;;;3.47;0.93;;;;;;;-144.22;100.00;60274.75;6290586;28;20215;-70
2023/01/12 09:03:17;;;;;;;1.87;0.80;;;;;;;-144.22;100.00;60274.75;6272969;28;20212;-70
2023/01/12 09:06:24;;;;;;;1.40;0.73;;;;;;;-144.22;100.00;60274.75;6272036;28;20736;-70
2023/01/12 09:09:26;;;;;;;3.20;0.93;;;;;;;-144.22;100.00;60274.75;6276933;28;20240;-71
2023/01/12 09:12:28;;;;;;;2.73;0.90;;;;;;;-144.22;100.00;60274.75;6291541;28;20234;-70
2023/01/12 09:15:33;;;;;;;1.50;0.80;;;;;;;188.01;100.00;60274.75;6293641;28;20284;-70
2023/01/12 09:18:35;;;;;;;4.80;1.37;;;;;;;-144.22;100.00;60274.75;6291203;28;20381;-70
2023/01/12 09:21:40;;;;;;;1.83;0.77;;;;;;;188.01;100.00;60274.75;6289569;28;20372;-70
2023/01/12 09:24:42;;;;;;;5.37;0.90;;;;;;;-144.22;100.00;60274.75;6274698;28;20241;-70
2023/01/12 09:27:47;;;;;;;1.83;0.67;;;;;;;-144.22;100.00;60274.75;6290232;28;20236;-70
2023/01/12 09:30:50;;;;;;;2.50;0.70;;;;;;;8.77;100.00;60274.75;6289559;28;20374;-70
2023/01/12 09:33:53;;;;;;;3.33;0.80;;;;;;;-144.22;100.00;60274.75;6271952;28;20240;-69
2023/01/12 09:36:58;;;;;;;3.37;1.13;;;;;;;-144.22;100.00;60274.75;6291900;28;20314;-70
2023/01/12 09:40:02;;;;;;;4.17;1.30;;;;;;;-144.22;100.00;60274.75;6288800;28;20241;-70
2023/01/12 09:50:33;;;;;;;4.03;0.90;;;;;;;-144.22;100.00;60274.75;6288464;28;20229;-69
2023/01/12 09:53:39;;;;;;;3.67;1.00;;;;;;;-144.22;100.00;60274.75;6189624;28;20931;-70
2023/01/12 09:57:11;;;;;;;2.67;0.67;;;;;;;-144.22;100.00;60274.75;6188153;28;20311;-70
2023/01/12 10:00:29;;;;;;;5.40;0.80;;;;;;;-144.22;100.00;60274.75;6187337;28;20294;-70
2023/01/12 10:03:37;;;;;;;3.90;1.03;;;;;;;-144.22;100.00;60274.75;6172500;28;20231;-70
2023/01/12 10:06:40;;;;;;;6.67;1.17;;;;;;;-144.22;100.00;60274.75;6180311;28;20377;-70
2023/01/12 10:09:42;;;;;;;4.30;0.70;;;;;;;-144.22;100.00;60274.75;6190186;28;20228;-70
2023/01/12 10:12:50;;;;;;;3.20;0.80;;;;;;;-144.22;100.00;60274.75;6188246;28;20280;-70
2023/01/12 10:16:00;;;;;;;2.73;1.10;;;;;;;-144.22;100.00;60274.75;6189527;28;20245;-71
2023/01/12 10:19:18;;;;;;;4.10;1.23;;;;;;;-144.22;100.00;60274.75;6188535;28;20292;-70
2023/01/12 10:22:35;;;;;;;4.87;0.97;;;;;;;-144.22;100.00;60274.75;6187181;28;20234;-69
2023/01/12 10:25:47;;;;;;;2.03;0.77;;;;;;;-144.22;100.00;60274.75;6190845;28;20329;-70
2023/01/12 10:28:53;;;;;;;2.80;0.70;;;;;;;-144.22;100.00;60274.75;6225346;28;20353;-70
2023/01/12 10:31:55;;;;;;;3.43;1.20;;;;;;;-144.22;100.00;60274.75;6271730;28;20782;-70
2023/01/12 10:34:57;;;;;;;2.87;0.83;;;;;;;-144.22;100.00;60274.75;6289167;28;20833;-70
2023/01/12 10:37:59;;;;;;;3.33;1.13;;;;;;;-144.22;100.00;60274.75;6288318;28;20766;-70
2023/01/12 10:41:10;;;;;;;5.77;1.20;;;;;;;-144.22;100.00;60274.75;6269151;28;20230;-70
2023/01/12 10:44:15;;;;;;;2.10;0.93;;;;;;;-144.22;100.00;60274.75;6266742;28;20220;-70
2023/01/12 10:47:17;;;;;;;2.90;1.10;;;;;;;-144.22;100.00;60274.75;6271205;28;20284;-71
2023/01/12 10:50:21;;;;;;;4.40;1.10;;;;;;;-144.22;100.00;60274.75;6270942;28;20316;-71
2023/01/12 10:53:29;;;;;;;2.47;0.80;;;;;;;-144.22;100.00;60274.75;6268977;28;20848;-70
2023/01/12 10:56:38;;;;;;;4.97;1.20;;;;;;;188.01;100.00;60274.75;6284685;28;20222;-70
2023/01/12 10:59:53;;;;;;;3.40;1.10;;;;;;;-144.22;100.00;60274.75;6283103;28;20224;-70
2023/01/12 11:02:55;;;;;;;1.97;0.83;;;;;;;-144.22;100.00;60274.75;6265811;28;20310;-70
2023/01/12 11:06:25;;;;;;;4.77;0.93;;;;;;;-144.22;100.00;60274.75;6267987;28;20222;-69
2023/01/12 11:09:30;;;;;;;5.43;1.27;;;;;;;-144.22;100.00;60274.75;6281886;28;20281;-70
2023/01/12 11:12:35;;;;;;;3.70;1.00;;;;;;;-144.22;100.00;60274.75;6291118;28;20228;-70
2023/01/12 11:15:39;;;;;;;2.07;1.10;;;;;;;-144.22;100.00;60274.75;6293714;28;20239;-70
2023/01/12 11:18:50;;;;;;;3.60;1.10;;;;;;;11.36;100.00;60274.75;6292644;28;20433;-70
2023/01/12 11:21:56;;;;;;;5.23;1.00;;;;;;;-144.22;100.00;60274.75;6294930;28;20717;-70
2023/01/12 11:25:06;;;;;;;2.53;0.90;;;;;;;-144.22;100.00;60274.75;6293252;28;20232;-71
2023/01/12 11:28:22;;;;;;;5.50;1.10;;;;;;;-144.22;100.00;60274.75;6292924;28;20256;-70
2023/01/12 11:31:30;;;;;;;4.10;0.93;;;;;;;-144.22;100.00;60274.75;6292362;28;20320;-70
2023/01/12 11:34:38;;;;;;;3.13;0.70;;;;;;;-144.22;100.00;60274.75;6292624;28;20229;-71
2023/01/12 11:37:42;;;;;;;4.57;0.77;;;;;;;-144.22;100.00;60274.75;6294415;28;20273;-69
2023/01/12 11:40:47;;;;;;;4.13;1.03;;;;;;;-144.22;100.00;60274.75;6288655;28;20631;-70
2023/01/12 11:44:01;;;;;;;2.50;0.90;;;;;;;-144.22;100.00;60274.75;6292786;28;20604;-70
2023/01/12 11:47:09;;;;;;;3.03;0.80;;;;;;;-144.22;100.00;60274.75;6279045;28;20232;-70
2023/01/12 11:50:35;;;;;;;2.87;0.90;;;;;;;-144.22;100.00;60274.75;6292402;28;20635;-70
2023/01/12 11:53:39;;;;;;;2.13;0.87;;;;;;;11.36;100.00;60274.75;6291046;28;20229;-70
2023/01/12 11:57:03;;;;;;;2.40;0.77;;;;;;;-144.22;100.00;60274.75;6273480;28;20597;-70
2023/01/12 12:00:23;;;;;;;3.13;0.80;;;;;;;-144.22;100.00;60274.75;6293204;28;20382;-70
2023/01/12 12:03:37;;;;;;;1.67;0.67;;;;;;;10.67;100.00;60274.75;6294943;28;20306;-70
2023/01/12 12:06:52;;;;;;;4.00;1.07;;;;;;;-144.22;100.00;60274.75;6283881;28;20241;-70
2023/01/12 12:10:14;;;;;;;2.90;0.70;;;;;;;-144.22;100.00;60274.75;6294648;28;20709;-70
2023/01/12 12:13:28;;;;;;;3.97;1.10;;;;;;;-144.22;100.00;60274.75;6273491;28;20228;-69
2023/01/12 12:16:40;;;;;;;3.20;0.80;;;;;;;-144.22;100.00;60274.75;6291601;28;20234;-70
2023/01/12 12:20:03;;;;;;;4.17;0.63;;;;;;;10.86;100.00;60274.75;6274996;28;20242;-70
2023/01/12 12:23:11;;;;;;;3.20;0.80;;;;;;;-144.22;100.00;60274.75;6273327;28;20233;-70
2023/01/12 12:26:24;;;;;;;2.50;0.83;;;;;;;-144.22;100.00;60274.75;6276197;28;20236;-70
2023/01/12 12:29:40;;;;;;;1.57;0.50;;;;;;;-144.22;100.00;60274.75;6290984;28;20242;-70
2023/01/12 12:33:03;;;;;;;2.73;0.80;;;;;;;-144.22;100.00;60274.75;6274070;28;20814;-69
2023/01/12 12:36:11;;;;;;;1.93;0.67;;;;;;;-144.22;100.00;60274.75;6290706;28;20652;-70
2023/01/12 12:39:41;;;;;;;1.10;0.57;;;;;;;-144.22;100.00;60274.75;6281563;28;20358;-69
2023/01/12 12:46:27;;;;;;;1.00;0.60;;;;;;;12.39;100.00;60274.75;6274943;28;20242;-70
2023/01/12 12:49:34;;;;;;;3.60;0.73;;;;;;;-144.22;100.00;60274.75;6277228;28;20226;-70
2023/01/12 12:52:36;;;;;;;4.60;0.80;;;;;;;-144.22;100.00;60274.75;6290990;28;20321;-70
2023/01/12 12:55:42;;;;;;;1.90;0.83;;;;;;;-144.22;100.00;60274.75;6290545;28;20241;-69
2023/01/12 12:58:55;;;;;;;3.23;0.80;;;;;;;-144.22;100.00;60274.75;6272090;28;20229;-70
2023/01/12 13:02:00;;;;;;;2.60;0.93;;;;;;;13.15;100.00;60274.75;6291878;28;20604;-69
2023/01/12 13:05:05;;;;;;;1.33;0.73;;;;;;;-144.22;100.00;60274.75;6292557;28;20719;-69
2023/01/12 13:08:21;;;;;;;1.57;0.60;;;;;;;-144.22;100.00;60274.75;6289806;28;20310;-69
2023/01/12 13:11:54;;;;;;;0.97;0.40;;;;;;;-144.22;100.00;60274.75;6290266;28;20314;-69
2023/01/12 13:15:23;;;;;;;1.50;0.57;;;;;;;-144.22;100.00;60274.75;6291660;28;20347;-70
2023/01/12 13:18:49;;;;;;;2.10;0.60;;;;;;;-144.22;100.00;60274.75;6289428;28;20234;-69
2023/01/12 13:21:57;;;;;;;1.33;0.50;;;;;;;-144.22;100.00;60274.75;6262885;28;20376;-69
2023/01/12 13:25:19;;;;;;;1.07;0.50;;;;;;;12.31;100.00;60274.75;6273259;28;20351;-69
2023/01/12 13:28:21;;;;;;;2.40;0.70;;;;;;;-144.22;100.00;60274.75;6261269;28;20603;-69
2023/01/12 13:31:30;;;;;;;1.33;0.67;;;;;;;-144.22;100.00;60274.75;6263149;28;20322;-68
2023/01/12 13:34:35;;;;;;;2.23;0.50;;;;;;;11.14;100.00;60274.75;6265064;28;20837;-69
2023/01/12 13:38:08;;;;;;;1.87;0.70;;;;;;;-144.22;100.00;60274.75;6266239;28;20259;-69
2023/01/12 13:41:13;;;;;;;1.83;0.53;;;;;;;188.01;100.00;60274.75;6281047;28;20632;-69
2023/01/12 13:44:38;;;;;;;2.40;0.73;;;;;;;-144.22;100.00;60274.75;6263394;28;20683;-69
2023/01/12 13:47:42;;;;;;;2.00;0.63;;;;;;;-144.22;100.00;60274.75;6266699;28;20759;-69
2023/01/12 13:50:52;;;;;;;3.03;0.90;;;;;;;-144.22;100.00;60274.75;6264962;28;20230;-68
2023/01/12 13:54:03;;;;;;;1.70;0.50;;;;;;;11.36;100.00;60274.75;6264175;28;20631;-69
2023/01/12 13:57:26;;;;;;;0.90;0.50;;;;;;;-144.22;100.00;60274.75;6265674;28;20288;-68
2023/01/12 14:00:31;;;;;;;2.03;0.60;;;;;;;-144.22;100.00;60274.75;6266944;28;20392;-68
2023/01/12 14:04:01;;;;;;;1.80;0.47;;;;;;;-144.22;100.00;60274.75;6256630;28;20606;-68
2023/01/12 14:07:27;;;;;;;0.30;0.30;;;;;;;21.74;100.00;60274.75;6265232;28;20246;-68
2023/01/12 14:11:09;;;;;;;0.90;0.47;;;;;;;-144.22;100.00;60274.75;6263958;28;20735;-69
2023/01/12 14:18:05;;;;;;;1.63;0.60;;;;;;;-144.22;100.00;60274.75;6264483;28;20230;-69
2023/01/12 14:21:19;;;;;;;1.67;0.50;;;;;;;-144.22;100.00;60274.75;6264815;28;20254;-69
2023/01/12 14:24:25;;;;;;;2.20;0.33;;;;;;;-144.22;100.00;60274.75;6265452;28;20254;-69
2023/01/12 14:27:28;;;;;;;2.53;0.63;;;;;;;-144.22;100.00;60274.75;6267585;28;20280;-68
2023/01/12 14:30:31;;;;;;;1.50;0.40;;;;;;;10.06;100.00;60274.75;6274833;28;20224;-69
2023/01/12 14:33:36;;;;;;;0.80;0.50;;;;;;;-144.22;100.00;60274.75;6289366;28;20235;-69
2023/01/12 14:36:44;;;;;;;1.23;0.60;;;;;;;-144.22;100.00;60274.75;6275052;28;20271;-69
2023/01/12 14:39:46;;;;;;;2.50;0.50;;;;;;;-144.22;100.00;60274.75;6274981;28;20354;-69
2023/01/12 14:46:29;;;;;;;1.83;0.30;;;;;;;-144.22;100.00;60274.75;6255612;28;20247;-69
2023/01/12 14:49:37;;;;;;;1.80;0.43;;;;;;;-144.22;100.00;60274.75;6289525;28;20227;-68